createdAt,value
2022-08-20T00:00:20.130Z,100978.91
2022-08-20T00:03:33.117Z,100970.38
2022-08-20T00:06:37.322Z,100978.31
2022-08-20T00:09:41.478Z,100977.56
2022-08-20T00:12:45.501Z,100975.50
2022-08-20T00:15:48.514Z,100974.88
2022-08-20T00:18:51.620Z,100977.47
2022-08-20T00:21:58.060Z,100983.28
2022-08-20T00:25:01.164Z,100986.56
2022-08-20T00:28:06.988Z,100986.19
2022-08-20T00:31:12.253Z,100994.50
2022-08-20T00:34:14.879Z,101000.63
2022-08-20T00:37:19.160Z,100998.00
2022-08-20T00:40:26.328Z,100992.41
2022-08-20T00:43:33.310Z,100984.75
2022-08-20T00:46:36.188Z,100983.44
2022-08-20T00:49:38.807Z,100982.44
2022-08-20T00:52:49.891Z,100986.50
2022-08-20T00:55:53.003Z,100987.97
2022-08-20T00:58:56.014Z,100978.56
2022-08-20T01:02:01.066Z,100984.66
2022-08-20T01:05:05.253Z,100988.56
2022-08-20T01:08:09.678Z,100987.81
2022-08-20T01:11:16.429Z,100984.41
2022-08-20T01:14:30.561Z,100992.28
2022-08-20T01:17:36.391Z,100991.06
2022-08-20T01:20:42.475Z,100991.41
2022-08-20T01:23:54.232Z,100988.34
2022-08-20T01:26:58.330Z,100987.28
2022-08-20T01:30:02.906Z,100995.19
2022-08-20T01:33:09.783Z,100990.06
2022-08-20T01:36:13.274Z,100998.69
2022-08-20T01:39:18.593Z,101005.66
2022-08-20T01:42:30.500Z,101008.47
2022-08-20T01:45:33.713Z,101014.59
2022-08-20T01:48:36.512Z,101009.94
2022-08-20T01:51:39.726Z,101014.84
2022-08-20T01:54:42.571Z,101020.81
2022-08-20T01:57:48.329Z,101025.34
2022-08-20T02:00:50.949Z,101025.47
2022-08-20T02:03:54.946Z,101017.75
2022-08-20T02:06:59.912Z,101018.59
2022-08-20T02:10:02.758Z,101019.66
2022-08-20T02:13:09.574Z,101013.81
2022-08-20T02:16:12.211Z,101011.13
2022-08-20T02:19:18.971Z,101013.81
2022-08-20T02:22:28.006Z,101017.03
2022-08-20T02:25:36.693Z,101003.56
2022-08-20T02:28:41.342Z,101000.88
2022-08-20T02:32:24.961Z,101004.28
2022-08-20T02:35:12.666Z,101012.50
2022-08-20T02:38:15.854Z,101014.59
2022-08-20T02:41:21.369Z,101009.94
2022-08-20T02:44:25.354Z,101014.16
2022-08-20T02:47:28.728Z,101011.75
2022-08-20T02:50:31.539Z,101016.16
2022-08-20T02:53:37.394Z,101022.78
2022-08-20T02:56:40.557Z,101015.34
2022-08-20T02:59:45.500Z,101018.25
2022-08-20T03:02:48.234Z,101007.78
2022-08-20T03:05:54.394Z,101015.78
2022-08-20T03:08:57.255Z,101016.84
2022-08-20T03:11:59.896Z,101014.84
2022-08-20T03:15:04.090Z,101012.66
2022-08-20T03:18:06.742Z,101016.94
2022-08-20T03:21:10.634Z,101011.84
2022-08-20T03:24:17.437Z,101012.50
2022-08-20T03:27:21.345Z,101013.34
2022-08-20T03:30:31.617Z,101018.72
2022-08-20T03:33:35.027Z,101020.22
2022-08-20T03:36:37.669Z,101022.53
2022-08-20T03:39:40.645Z,101024.38
2022-08-20T03:42:43.336Z,101031.22
2022-08-20T03:45:47.752Z,101027.97
2022-08-20T03:48:50.341Z,101038.00
2022-08-20T03:51:59.803Z,101039.94
2022-08-20T03:55:02.554Z,101047.09
2022-08-20T03:58:07.222Z,101041.97
2022-08-20T04:01:45.374Z,101045.00
2022-08-20T04:04:33.988Z,101050.56
2022-08-20T04:07:37.772Z,101053.03
2022-08-20T04:10:40.535Z,101050.78
2022-08-20T04:13:43.424Z,101048.22
2022-08-20T04:16:49.141Z,101059.63
2022-08-20T04:19:51.839Z,101056.44
2022-08-20T04:22:58.503Z,101055.78
2022-08-20T04:26:01.684Z,101053.00
2022-08-20T04:29:04.535Z,101062.66
2022-08-20T04:32:08.780Z,101053.94
2022-08-20T04:35:15.935Z,101061.41
2022-08-20T04:38:20.920Z,101060.94
2022-08-20T04:41:24.598Z,101060.31
2022-08-20T04:44:27.467Z,101062.03
2022-08-20T04:47:34.721Z,101065.22
2022-08-20T04:50:39.290Z,101072.34
2022-08-20T04:53:42.654Z,101065.75
2022-08-20T04:56:45.499Z,101062.84
2022-08-20T04:59:48.056Z,101068.44
2022-08-20T05:02:52.013Z,101067.28
2022-08-20T05:05:54.973Z,101070.19
2022-08-20T05:09:00.227Z,101067.03
2022-08-20T05:12:02.929Z,101065.09
2022-08-20T05:15:06.393Z,101066.34
2022-08-20T05:18:10.416Z,101075.03
2022-08-20T05:21:13.335Z,101070.63
2022-08-20T05:24:18.210Z,101073.81
2022-08-20T05:27:24.749Z,101068.44
2022-08-20T05:30:33.501Z,101071.50
2022-08-20T05:33:40.224Z,101074.47
2022-08-20T05:36:45.335Z,101076.16
2022-08-20T05:39:49.573Z,101076.16
2022-08-20T05:42:53.695Z,101073.59
2022-08-20T05:45:58.736Z,101072.28
2022-08-20T05:49:02.667Z,101079.75
2022-08-20T05:52:06.126Z,101084.41
2022-08-20T05:55:11.234Z,101079.75
2022-08-20T05:58:18.601Z,101071.72
2022-08-20T06:01:21.339Z,101082.41
2022-08-20T06:04:28.501Z,101082.88
2022-08-20T06:07:31.307Z,101080.31
2022-08-20T06:10:33.937Z,101077.00
2022-08-20T06:13:36.586Z,101076.03
2022-08-20T06:16:39.465Z,101077.75
2022-08-20T06:20:02.409Z,101072.34
2022-08-20T06:23:06.496Z,101079.81
2022-08-20T06:26:09.410Z,101081.06
2022-08-20T06:29:12.006Z,101083.00
2022-08-20T06:32:14.737Z,101082.16
2022-08-20T06:35:20.430Z,101087.94
2022-08-20T06:38:23.178Z,101092.09
2022-08-20T06:41:36.042Z,101086.94
2022-08-20T06:44:39.079Z,101087.91
2022-08-20T06:47:42.817Z,101089.78
2022-08-20T06:50:48.482Z,101093.19
2022-08-20T06:53:51.208Z,101093.94
2022-08-20T06:56:54.558Z,101098.47
2022-08-20T06:59:58.337Z,101101.03
2022-08-20T07:03:02.190Z,101099.56
2022-08-20T07:06:06.877Z,101101.53
2022-08-20T07:09:09.487Z,101098.31
2022-08-20T07:12:12.108Z,101100.88
2022-08-20T07:15:15.501Z,101110.84
2022-08-20T07:18:28.357Z,101120.97
2022-08-20T07:21:33.439Z,101104.81
2022-08-20T07:24:40.454Z,101121.13
2022-08-20T07:27:44.634Z,101118.69
2022-08-20T07:31:13.219Z,101124.16
2022-08-20T07:34:16.591Z,101128.69
2022-08-20T07:37:20.778Z,101127.31
2022-08-20T07:40:27.432Z,101122.53
2022-08-20T07:43:30.695Z,101124.06
2022-08-20T07:46:33.447Z,101134.41
2022-08-20T07:49:39.295Z,101133.25
2022-08-20T07:52:43.314Z,101137.56
2022-08-20T07:55:54.942Z,101138.25
2022-08-20T07:59:02.255Z,101132.44
2022-08-20T08:02:05.264Z,101136.09
2022-08-20T08:05:08.835Z,101138.19
2022-08-20T08:08:17.540Z,101140.31
2022-08-20T08:11:20.349Z,101144.31
2022-08-20T08:14:27.308Z,101151.59
2022-08-20T08:17:31.170Z,101151.31
2022-08-20T08:20:33.945Z,101148.13
2022-08-20T08:23:50.550Z,101152.38
2022-08-20T08:26:53.155Z,101146.91
2022-08-20T08:29:55.814Z,101155.00
2022-08-20T08:33:16.185Z,101153.75
2022-08-20T08:36:18.805Z,101152.25
2022-08-20T08:39:22.744Z,101150.00
2022-08-20T08:42:29.768Z,101151.44
2022-08-20T08:45:41.231Z,101155.19
2022-08-20T08:48:47.539Z,101154.56
2022-08-20T08:51:56.059Z,101152.69
2022-08-20T08:55:04.499Z,101160.59
2022-08-20T08:58:16.588Z,101163.75
2022-08-20T09:01:55.696Z,101163.88
2022-08-20T09:04:46.519Z,101157.03
2022-08-20T09:07:53.265Z,101155.88
2022-08-20T09:11:02.700Z,101157.03
2022-08-20T09:14:05.304Z,101170.66
2022-08-20T09:17:08.276Z,101165.38
2022-08-20T09:20:11.836Z,101175.53
2022-08-20T09:23:14.457Z,101179.31
2022-08-20T09:26:18.377Z,101169.59
2022-08-20T09:29:20.950Z,101175.59
2022-08-20T09:32:26.114Z,101174.59
2022-08-20T09:35:29.492Z,101169.72
2022-08-20T09:38:32.722Z,101177.56
2022-08-20T09:41:36.711Z,101182.41
2022-08-20T09:44:40.140Z,101179.31
2022-08-20T09:47:55.178Z,101175.72
2022-08-20T09:51:06.268Z,101173.31
2022-08-20T09:54:08.897Z,101171.31
2022-08-20T09:57:13.569Z,101175.00
2022-08-20T10:00:16.936Z,101176.00
2022-08-20T10:03:20.648Z,101178.47
2022-08-20T10:06:23.274Z,101178.47
2022-08-20T10:09:25.900Z,101179.28
2022-08-20T10:12:29.874Z,101181.31
2022-08-20T10:15:33.163Z,101170.63
2022-08-20T10:18:36.137Z,101164.44
2022-08-20T10:21:39.364Z,101170.69
2022-08-20T10:24:42.149Z,101168.34
2022-08-20T10:27:46.214Z,101167.63
2022-08-20T10:30:48.793Z,101174.28
2022-08-20T10:33:51.384Z,101179.66
2022-08-20T10:36:53.974Z,101182.59
2022-08-20T10:39:56.878Z,101181.97
2022-08-20T10:43:00.821Z,101184.47
2022-08-20T10:46:03.717Z,101182.38
2022-08-20T10:49:06.262Z,101179.41
2022-08-20T10:52:08.861Z,101182.38
2022-08-20T10:55:11.640Z,101190.38
2022-08-20T10:58:15.615Z,101177.34
2022-08-20T11:01:31.510Z,101184.09
2022-08-20T11:04:35.997Z,101180.63
2022-08-20T11:07:55.030Z,101177.72
2022-08-20T11:10:59.213Z,101178.97
2022-08-20T11:14:03.155Z,101188.53
2022-08-20T11:17:06.458Z,101199.59
2022-08-20T11:20:11.222Z,101197.53
2022-08-20T11:23:13.865Z,101202.47
2022-08-20T11:26:23.092Z,101205.97
2022-08-20T11:29:29.979Z,101198.19
2022-08-20T11:32:34.815Z,101195.63
2022-08-20T11:35:49.103Z,101192.78
2022-08-20T11:38:52.520Z,101192.56
2022-08-20T11:41:55.370Z,101199.53
2022-08-20T11:44:59.419Z,101192.75
2022-08-20T11:48:01.983Z,101197.09
2022-08-20T11:51:05.230Z,101198.72
2022-08-20T11:54:07.806Z,101193.44
2022-08-20T11:57:11.234Z,101204.72
2022-08-20T12:00:19.083Z,101196.28
2022-08-20T12:03:21.739Z,101210.34
2022-08-20T12:06:24.343Z,101213.34
2022-08-20T12:09:26.905Z,101214.63
2022-08-20T12:12:29.523Z,101207.38
2022-08-20T12:15:33.573Z,101209.13
2022-08-20T12:18:36.205Z,101207.38
2022-08-20T12:21:38.942Z,101203.31
2022-08-20T12:24:41.614Z,101204.13
2022-08-20T12:27:44.235Z,101205.16
2022-08-20T12:30:48.210Z,101214.91
2022-08-20T12:33:50.772Z,101202.16
2022-08-20T12:37:01.466Z,101204.31
2022-08-20T12:40:08.249Z,101208.28
2022-08-20T12:43:11.030Z,101211.66
2022-08-20T12:46:14.986Z,101207.88
2022-08-20T12:49:17.624Z,101207.44
2022-08-20T12:52:21.954Z,101208.34
2022-08-20T12:55:24.527Z,101214.69
2022-08-20T12:58:27.098Z,101213.88
2022-08-20T13:01:31.069Z,101211.28
2022-08-20T13:04:33.846Z,101209.25
2022-08-20T13:07:37.148Z,101220.63
2022-08-20T13:10:44.416Z,101211.13
2022-08-20T13:13:47.705Z,101212.44
2022-08-20T13:16:56.141Z,101221.13
2022-08-20T13:19:58.789Z,101221.00
2022-08-20T13:23:01.406Z,101214.88
2022-08-20T13:26:05.158Z,101209.09
2022-08-20T13:29:07.952Z,101217.25
2022-08-20T13:32:11.962Z,101212.66
2022-08-20T13:35:15.704Z,101223.41
2022-08-20T13:38:18.315Z,101217.78
2022-08-20T13:41:20.949Z,101224.94
2022-08-20T13:44:32.723Z,101206.88
2022-08-20T13:47:39.209Z,101202.00
2022-08-20T13:50:41.984Z,101201.78
2022-08-20T13:53:44.653Z,101192.38
2022-08-20T13:56:49.562Z,101198.53
2022-08-20T13:59:54.021Z,101198.94
2022-08-20T14:02:58.235Z,101196.63
2022-08-20T14:06:01.306Z,101199.53
2022-08-20T14:09:03.971Z,101200.91
2022-08-20T14:12:07.437Z,101202.44
2022-08-20T14:15:11.680Z,101199.38
2022-08-20T14:18:16.377Z,101187.94
2022-08-20T14:21:19.265Z,101190.16
2022-08-20T14:24:21.919Z,101193.97
2022-08-20T14:27:30.550Z,101202.09
2022-08-20T14:30:33.915Z,101201.81
2022-08-20T14:33:41.342Z,101213.31
2022-08-20T14:36:47.076Z,101223.41
2022-08-20T14:39:55.077Z,101216.91
2022-08-20T14:42:57.952Z,101217.53
2022-08-20T14:46:00.702Z,101222.34
2022-08-20T14:49:04.621Z,101220.25
2022-08-20T14:52:07.626Z,101221.38
2022-08-20T14:55:12.689Z,101214.06
2022-08-20T14:58:16.891Z,101217.31
2022-08-20T15:01:19.498Z,101214.34
2022-08-20T15:04:23.476Z,101216.78
2022-08-20T15:07:34.597Z,101222.44
2022-08-20T15:10:37.188Z,101228.03
2022-08-20T15:13:39.761Z,101214.28
2022-08-20T15:16:42.394Z,101225.22
2022-08-20T15:19:46.400Z,101231.50
2022-08-20T15:22:50.273Z,101233.50
2022-08-20T15:25:53.236Z,101229.41
2022-08-20T15:28:55.874Z,101232.41
2022-08-20T15:31:58.494Z,101232.97
2022-08-20T15:35:02.883Z,101232.13
2022-08-20T15:38:05.479Z,101245.56
2022-08-20T15:41:08.126Z,101234.16
2022-08-20T15:44:10.695Z,101245.56
2022-08-20T15:47:21.039Z,101242.69
2022-08-20T15:51:00.334Z,101239.53
2022-08-20T15:54:06.926Z,101239.41
2022-08-20T15:57:13.694Z,101247.84
2022-08-20T16:00:19.904Z,101245.41
2022-08-20T16:03:47.690Z,101251.00
2022-08-20T16:06:55.165Z,101256.13
2022-08-20T16:10:06.401Z,101259.50
2022-08-20T16:13:20.217Z,101249.22
2022-08-20T16:16:32.204Z,101249.63
2022-08-20T16:19:41.323Z,101266.03
2022-08-20T16:22:47.488Z,101265.28
2022-08-20T16:25:59.699Z,101264.53
2022-08-20T16:29:11.250Z,101261.94
2022-08-20T16:32:25.917Z,101270.69
2022-08-20T16:35:32.551Z,101275.72
2022-08-20T16:38:44.175Z,101277.41
2022-08-20T16:41:50.217Z,101271.47
2022-08-20T16:44:55.988Z,101276.91
2022-08-20T16:48:02.371Z,101282.31
2022-08-20T16:51:09.615Z,101278.47
2022-08-20T16:54:14.846Z,101287.63
2022-08-20T16:57:18.455Z,101287.31
2022-08-20T17:00:25.825Z,101289.03
2022-08-20T17:03:38.624Z,101283.38
2022-08-20T17:06:47.228Z,101291.25
2022-08-20T17:09:51.450Z,101291.56
2022-08-20T17:12:59.336Z,101287.06
2022-08-20T17:16:04.783Z,101295.91
2022-08-20T17:19:14.670Z,101294.09
2022-08-20T17:22:20.190Z,101296.34
2022-08-20T17:25:32.332Z,101288.03
2022-08-20T17:28:36.088Z,101287.50
2022-08-20T17:31:41.744Z,101296.19
2022-08-20T17:34:46.729Z,101295.47
2022-08-20T17:37:54.037Z,101297.31
2022-08-20T17:41:02.286Z,101300.13
2022-08-20T17:44:07.261Z,101295.78
2022-08-20T17:47:16.008Z,101299.84
2022-08-20T17:50:22.172Z,101296.94
2022-08-20T17:53:28.334Z,101298.22
2022-08-20T17:56:36.471Z,101301.84
2022-08-20T18:00:02.647Z,101303.56
2022-08-20T18:03:15.471Z,101293.19
2022-08-20T18:06:28.484Z,101302.59
2022-08-20T18:09:41.228Z,101299.06
2022-08-20T18:12:59.663Z,101302.94
2022-08-20T18:16:04.810Z,101307.91
2022-08-20T18:19:16.006Z,101308.81
2022-08-20T18:22:23.186Z,101311.13
2022-08-20T18:25:32.370Z,101308.69
2022-08-20T18:28:41.786Z,101307.81
2022-08-20T18:31:48.649Z,101317.28
2022-08-20T18:34:52.642Z,101320.59
2022-08-20T18:37:55.319Z,101325.38
2022-08-20T18:41:14.095Z,101330.91
2022-08-20T18:44:34.761Z,101340.94
2022-08-20T18:47:46.096Z,101343.75
2022-08-20T18:50:53.201Z,101341.75
2022-08-20T18:53:55.914Z,101341.28
2022-08-20T18:57:08.286Z,101348.28
2022-08-20T19:00:16.709Z,101350.38
2022-08-20T19:03:24.569Z,101349.63
2022-08-20T19:06:39.596Z,101338.78
2022-08-20T19:10:09.226Z,101340.63
2022-08-20T19:13:48.179Z,101334.91
2022-08-20T19:16:56.932Z,101336.34
2022-08-20T19:20:01.095Z,101332.00
2022-08-20T19:23:08.529Z,101341.47
2022-08-20T19:26:24.856Z,101338.47
2022-08-20T19:29:31.512Z,101349.13
2022-08-20T19:32:35.502Z,101352.16
2022-08-20T19:35:38.323Z,101348.66
2022-08-20T19:38:46.218Z,101357.84
2022-08-20T19:41:52.371Z,101352.34
2022-08-20T19:44:57.403Z,101353.22
2022-08-20T19:48:14.907Z,101354.06
2022-08-20T19:51:27.568Z,101364.03
2022-08-20T19:54:31.008Z,101358.50
2022-08-20T19:58:16.892Z,101354.97
2022-08-20T20:01:29.750Z,101368.53
2022-08-20T20:04:41.175Z,101358.44
2022-08-20T20:07:59.561Z,101344.00
2022-08-20T20:11:03.127Z,101351.50
2022-08-20T20:14:09.387Z,101354.75
2022-08-20T20:17:22.508Z,101355.63
2022-08-20T20:20:31.612Z,101351.34
2022-08-20T20:23:45.729Z,101354.78
2022-08-20T20:26:50.555Z,101358.00
2022-08-20T20:29:59.649Z,101357.50
2022-08-20T20:33:11.450Z,101363.44
2022-08-20T20:36:19.182Z,101358.59
2022-08-20T20:39:29.129Z,101356.97
2022-08-20T20:42:31.838Z,101365.69
2022-08-20T20:45:37.512Z,101360.19
2022-08-20T20:48:44.014Z,101360.06
2022-08-20T20:51:57.048Z,101355.09
2022-08-20T20:55:13.543Z,101358.22
2022-08-20T20:58:16.144Z,101351.75
2022-08-20T21:01:38.582Z,101354.16
2022-08-20T21:04:44.721Z,101364.13
2022-08-20T21:07:51.791Z,101356.69
2022-08-20T21:10:54.348Z,101360.53
2022-08-20T21:13:56.947Z,101356.16
2022-08-20T21:17:01.957Z,101359.38
2022-08-20T21:20:07.458Z,101363.25
2022-08-20T21:23:11.414Z,101362.56
2022-08-20T21:26:14.241Z,101356.94
2022-08-20T21:29:32.118Z,101360.63
2022-08-20T21:32:35.193Z,101355.75
2022-08-20T21:35:37.761Z,101358.19
2022-08-20T21:38:41.731Z,101348.81
2022-08-20T21:41:45.790Z,101350.09
2022-08-20T21:44:49.723Z,101348.75
2022-08-20T21:47:52.794Z,101341.84
2022-08-20T21:50:55.378Z,101350.97
2022-08-20T21:53:59.277Z,101337.63
2022-08-20T21:57:04.413Z,101350.84
2022-08-20T22:00:16.006Z,101346.16
2022-08-20T22:03:20.067Z,101341.63
2022-08-20T22:06:23.087Z,101349.53
2022-08-20T22:09:27.049Z,101349.22
2022-08-20T22:12:29.646Z,101354.25
2022-08-20T22:15:32.227Z,101355.13
2022-08-20T22:18:35.111Z,101356.56
2022-08-20T22:21:39.344Z,101350.03
2022-08-20T22:24:43.361Z,101352.72
2022-08-20T22:27:45.960Z,101354.16
2022-08-20T22:30:48.899Z,101347.94
2022-08-20T22:33:51.775Z,101352.34
2022-08-20T22:36:55.374Z,101345.19
2022-08-20T22:39:59.898Z,101345.63
2022-08-20T22:43:02.875Z,101346.78
2022-08-20T22:46:06.027Z,101347.88
2022-08-20T22:49:12.912Z,101347.28
2022-08-20T22:52:15.746Z,101344.72
2022-08-20T22:55:20.284Z,101344.38
2022-08-20T22:58:30.891Z,101345.53
2022-08-20T23:01:34.697Z,101341.03
2022-08-20T23:04:38.085Z,101330.88
2022-08-20T23:07:40.815Z,101331.56
2022-08-20T23:10:45.048Z,101328.31
2022-08-20T23:13:47.840Z,101322.91
2022-08-20T23:16:59.701Z,101322.16
2022-08-20T23:20:02.926Z,101312.03
2022-08-20T23:23:06.639Z,101315.59
2022-08-20T23:26:12.826Z,101313.00
2022-08-20T23:29:15.769Z,101309.28
2022-08-20T23:32:25.940Z,101306.34
2022-08-20T23:35:32.207Z,101307.66
2022-08-20T23:38:35.994Z,101301.69
2022-08-20T23:41:47.512Z,101303.75
2022-08-20T23:44:50.780Z,101306.69
2022-08-20T23:47:53.806Z,101299.09
2022-08-20T23:50:56.513Z,101297.38
2022-08-20T23:53:59.143Z,101298.53
2022-08-20T23:57:03.146Z,101293.50
